sensor_id;sensor_type;location;lat;lon;timestamp;temperature;humidity
19263;DHT22;9765;52.354;20.884;2023-04-24T04:02:16;9.50;99.90
19263;DHT22;9765;52.354;20.884;2023-04-24T04:04:43;9.40;99.90
19263;DHT22;9765;52.354;20.884;2023-04-24T04:07:09;9.50;99.90
19263;DHT22;9765;52.354;20.884;2023-04-24T04:09:36;9.60;99.90
19263;DHT22;9765;52.354;20.884;2023-04-24T04:12:03;9.80;99.90
19263;DHT22;9765;52.354;20.884;2023-04-24T04:14:30;9.90;99.90
19263;DHT22;9765;52.354;20.884;2023-04-24T04:16:59;10.10;99.90
19263;DHT22;9765;52.354;20.884;2023-04-24T04:19:27;10.20;99.90
19263;DHT22;9765;52.354;20.884;2023-04-24T04:21:54;10.40;99.90
19263;DHT22;9765;52.354;20.884;2023-04-24T04:24:21;10.50;99.90
19263;DHT22;9765;52.354;20.884;2023-04-24T04:26:49;10.60;99.90
19263;DHT22;9765;52.354;20.884;2023-04-24T04:29:17;10.80;99.90
19263;DHT22;9765;52.354;20.884;2023-04-24T04:31:44;10.90;99.90
19263;DHT22;9765;52.354;20.884;2023-04-24T04:34:11;11.00;99.90
19263;DHT22;9765;52.354;20.884;2023-04-24T04:36:40;11.10;99.90
19263;DHT22;9765;52.354;20.884;2023-04-24T04:39:08;11.20;99.90
19263;DHT22;9765;52.354;20.884;2023-04-24T04:41:35;11.20;99.90
19263;DHT22;9765;52.354;20.884;2023-04-24T04:44:03;11.30;99.90
19263;DHT22;9765;52.354;20.884;2023-04-24T04:46:30;11.40;99.90
19263;DHT22;9765;52.354;20.884;2023-04-24T04:48:59;11.50;99.90
19263;DHT22;9765;52.354;20.884;2023-04-24T04:51:26;11.60;99.90
19263;DHT22;9765;52.354;20.884;2023-04-24T04:53:54;11.80;99.90
19263;DHT22;9765;52.354;20.884;2023-04-24T04:56:21;12.00;99.90
19263;DHT22;9765;52.354;20.884;2023-04-24T04:58:48;12.10;99.90
19263;DHT22;9765;52.354;20.884;2023-04-24T05:01:15;12.30;99.90
19263;DHT22;9765;52.354;20.884;2023-04-24T05:03:41;12.50;99.90
19263;DHT22;9765;52.354;20.884;2023-04-24T05:06:08;12.70;99.90
19263;DHT22;9765;52.354;20.884;2023-04-24T05:08:35;12.90;99.90
19263;DHT22;9765;52.354;20.884;2023-04-24T05:11:03;13.20;99.90
19263;DHT22;9765;52.354;20.884;2023-04-24T05:13:30;13.40;99.90
19263;DHT22;9765;52.354;20.884;2023-04-24T05:15:57;13.70;99.90
19263;DHT22;9765;52.354;20.884;2023-04-24T05:18:24;14.00;99.90
19263;DHT22;9765;52.354;20.884;2023-04-24T05:20:51;14.30;99.90
19263;DHT22;9765;52.354;20.884;2023-04-24T05:23:17;14.50;99.90
19263;DHT22;9765;52.354;20.884;2023-04-24T05:25:44;14.80;99.90
19263;DHT22;9765;52.354;20.884;2023-04-24T05:28:13;15.20;99.90
19263;DHT22;9765;52.354;20.884;2023-04-24T05:30:40;15.30;99.90
19263;DHT22;9765;52.354;20.884;2023-04-24T05:33:07;15.20;99.90
19263;DHT22;9765;52.354;20.884;2023-04-24T05:35:35;15.20;99.90
19263;DHT22;9765;52.354;20.884;2023-04-24T05:38:02;15.20;99.90
19263;DHT22;9765;52.354;20.884;2023-04-24T05:40:28;15.20;99.90
19263;DHT22;9765;52.354;20.884;2023-04-24T05:42:55;15.20;99.90
19263;DHT22;9765;52.354;20.884;2023-04-24T05:45:23;15.20;99.90
19263;DHT22;9765;52.354;20.884;2023-04-24T05:47:50;15.20;99.90
19263;DHT22;9765;52.354;20.884;2023-04-24T05:50:18;15.30;99.90
19263;DHT22;9765;52.354;20.884;2023-04-24T05:52:44;15.40;99.90
19263;DHT22;9765;52.354;20.884;2023-04-24T05:55:11;15.40;99.90
19263;DHT22;9765;52.354;20.884;2023-04-24T05:57:38;15.40;99.90
19263;DHT22;9765;52.354;20.884;2023-04-24T06:00:06;15.50;99.90
19263;DHT22;9765;52.354;20.884;2023-04-24T06:02:35;15.50;99.90
19263;DHT22;9765;52.354;20.884;2023-04-24T06:05:02;15.60;99.90
19263;DHT22;9765;52.354;20.884;2023-04-24T06:07:30;15.60;99.90
19263;DHT22;9765;52.354;20.884;2023-04-24T06:09:56;15.70;99.90
19263;DHT22;9765;52.354;20.884;2023-04-24T06:12:23;15.80;99.90
19263;DHT22;9765;52.354;20.884;2023-04-24T06:14:51;15.80;99.90
19263;DHT22;9765;52.354;20.884;2023-04-24T06:17:18;15.80;99.90
19263;DHT22;9765;52.354;20.884;2023-04-24T06:19:46;16.00;99.90
19263;DHT22;9765;52.354;20.884;2023-04-24T06:22:13;16.20;99.90
19263;DHT22;9765;52.354;20.884;2023-04-24T06:24:40;16.50;99.90
19263;DHT22;9765;52.354;20.884;2023-04-24T06:27:07;16.70;99.90
19263;DHT22;9765;52.354;20.884;2023-04-24T06:29:35;16.80;99.90
19263;DHT22;9765;52.354;20.884;2023-04-24T06:32:02;17.00;99.90
19263;DHT22;9765;52.354;20.884;2023-04-24T06:34:28;17.40;99.90
19263;DHT22;9765;52.354;20.884;2023-04-24T06:36:57;17.60;99.90
19263;DHT22;9765;52.354;20.884;2023-04-24T06:39:24;17.70;99.90
19263;DHT22;9765;52.354;20.884;2023-04-24T06:41:51;17.80;99.90
19263;DHT22;9765;52.354;20.884;2023-04-24T06:44:17;17.80;99.90
19263;DHT22;9765;52.354;20.884;2023-04-24T06:46:44;18.00;99.90
19263;DHT22;9765;52.354;20.884;2023-04-24T06:49:11;18.10;99.90
19263;DHT22;9765;52.354;20.884;2023-04-24T06:51:41;18.50;99.90
19263;DHT22;9765;52.354;20.884;2023-04-24T06:54:10;18.60;99.90
19263;DHT22;9765;52.354;20.884;2023-04-24T06:56:37;18.80;99.90
19263;DHT22;9765;52.354;20.884;2023-04-24T06:59:04;18.90;99.90
19263;DHT22;9765;52.354;20.884;2023-04-24T07:01:31;19.00;99.90
19263;DHT22;9765;52.354;20.884;2023-04-24T07:03:57;19.10;99.90
19263;DHT22;9765;52.354;20.884;2023-04-24T07:06:24;19.30;99.90
19263;DHT22;9765;52.354;20.884;2023-04-24T07:08:52;19.50;99.90
19263;DHT22;9765;52.354;20.884;2023-04-24T07:11:22;19.70;99.90
19263;DHT22;9765;52.354;20.884;2023-04-24T07:13:48;19.70;99.90
19263;DHT22;9765;52.354;20.884;2023-04-24T07:16:15;19.90;99.90
19263;DHT22;9765;52.354;20.884;2023-04-24T07:18:42;20.20;99.90
19263;DHT22;9765;52.354;20.884;2023-04-24T07:21:08;20.20;99.90
19263;DHT22;9765;52.354;20.884;2023-04-24T07:23:36;20.20;99.90
19263;DHT22;9765;52.354;20.884;2023-04-24T07:26:03;20.60;99.90
19263;DHT22;9765;52.354;20.884;2023-04-24T07:28:31;20.60;99.90
19263;DHT22;9765;52.354;20.884;2023-04-24T07:30:58;20.60;99.90
19263;DHT22;9765;52.354;20.884;2023-04-24T07:33:28;20.60;99.90
19263;DHT22;9765;52.354;20.884;2023-04-24T07:35:54;20.60;99.90
19263;DHT22;9765;52.354;20.884;2023-04-24T07:38:21;20.60;99.90
19263;DHT22;9765;52.354;20.884;2023-04-24T07:40:48;20.40;99.90
19263;DHT22;9765;52.354;20.884;2023-04-24T07:43:15;20.40;99.90
19263;DHT22;9765;52.354;20.884;2023-04-24T07:45:43;20.30;99.90
19263;DHT22;9765;52.354;20.884;2023-04-24T07:48:12;20.20;99.90
19263;DHT22;9765;52.354;20.884;2023-04-24T07:50:42;20.30;99.90
19263;DHT22;9765;52.354;20.884;2023-04-24T07:53:08;20.40;99.90
19263;DHT22;9765;52.354;20.884;2023-04-24T07:55:37;20.50;99.90
19263;DHT22;9765;52.354;20.884;2023-04-24T07:58:04;20.60;99.90
19263;DHT22;9765;52.354;20.884;2023-04-24T08:00:31;20.80;99.90
19263;DHT22;9765;52.354;20.884;2023-04-24T08:02:59;21.00;99.90
19263;DHT22;9765;52.354;20.884;2023-04-24T08:05:26;21.20;99.90
19263;DHT22;9765;52.354;20.884;2023-04-24T08:07:54;21.30;99.90
19263;DHT22;9765;52.354;20.884;2023-04-24T08:10:20;21.40;99.90
19263;DHT22;9765;52.354;20.884;2023-04-24T08:12:49;21.50;99.90
19263;DHT22;9765;52.354;20.884;2023-04-24T08:15:16;21.50;99.90
19263;DHT22;9765;52.354;20.884;2023-04-24T08:17:43;21.40;99.90
19263;DHT22;9765;52.354;20.884;2023-04-24T08:20:12;21.20;99.90
19263;DHT22;9765;52.354;20.884;2023-04-24T08:22:39;21.00;99.90
19263;DHT22;9765;52.354;20.884;2023-04-24T08:25:07;21.30;99.90
19263;DHT22;9765;52.354;20.884;2023-04-24T08:27:34;21.50;99.90
19263;DHT22;9765;52.354;20.884;2023-04-24T08:30:02;21.90;99.90
19263;DHT22;9765;52.354;20.884;2023-04-24T08:32:29;21.90;99.90
19263;DHT22;9765;52.354;20.884;2023-04-24T08:34:56;22.00;99.90
19263;DHT22;9765;52.354;20.884;2023-04-24T08:37:25;21.60;99.90
19263;DHT22;9765;52.354;20.884;2023-04-24T08:39:52;21.30;99.90
19263;DHT22;9765;52.354;20.884;2023-04-24T08:42:21;21.10;99.90
19263;DHT22;9765;52.354;20.884;2023-04-24T08:44:49;21.10;99.90
19263;DHT22;9765;52.354;20.884;2023-04-24T08:47:16;21.30;99.90
19263;DHT22;9765;52.354;20.884;2023-04-24T08:49:46;21.20;99.90
19263;DHT22;9765;52.354;20.884;2023-04-24T08:52:15;21.40;99.90
19263;DHT22;9765;52.354;20.884;2023-04-24T08:54:45;21.40;99.90
19263;DHT22;9765;52.354;20.884;2023-04-24T08:57:14;21.40;99.90
19263;DHT22;9765;52.354;20.884;2023-04-24T08:59:43;21.30;99.90
19263;DHT22;9765;52.354;20.884;2023-04-24T09:02:11;21.20;99.90
19263;DHT22;9765;52.354;20.884;2023-04-24T09:04:42;21.20;99.90
19263;DHT22;9765;52.354;20.884;2023-04-24T09:07:10;21.00;99.90
19263;DHT22;9765;52.354;20.884;2023-04-24T09:09:38;21.10;99.90
19263;DHT22;9765;52.354;20.884;2023-04-24T09:12:07;21.00;99.90
19263;DHT22;9765;52.354;20.884;2023-04-24T09:14:35;20.80;99.90
19263;DHT22;9765;52.354;20.884;2023-04-24T09:17:05;20.70;99.90
19263;DHT22;9765;52.354;20.884;2023-04-24T09:19:32;20.70;99.90
19263;DHT22;9765;52.354;20.884;2023-04-24T09:21:59;20.80;99.90
19263;DHT22;9765;52.354;20.884;2023-04-24T09:24:26;21.00;99.90
19263;DHT22;9765;52.354;20.884;2023-04-24T09:26:57;21.30;99.90
19263;DHT22;9765;52.354;20.884;2023-04-24T09:29:25;21.20;99.90
19263;DHT22;9765;52.354;20.884;2023-04-24T09:31:52;21.20;99.90
19263;DHT22;9765;52.354;20.884;2023-04-24T09:34:22;21.10;99.90
19263;DHT22;9765;52.354;20.884;2023-04-24T09:36:49;21.10;99.90
19263;DHT22;9765;52.354;20.884;2023-04-24T09:39:17;21.30;99.90
19263;DHT22;9765;52.354;20.884;2023-04-24T09:41:46;21.20;99.90
19263;DHT22;9765;52.354;20.884;2023-04-24T09:44:14;21.30;99.90
19263;DHT22;9765;52.354;20.884;2023-04-24T09:46:45;21.30;99.90
19263;DHT22;9765;52.354;20.884;2023-04-24T09:49:15;21.50;99.90
19263;DHT22;9765;52.354;20.884;2023-04-24T09:51:43;21.50;99.90
19263;DHT22;9765;52.354;20.884;2023-04-24T09:54:19;21.60;99.90
19263;DHT22;9765;52.354;20.884;2023-04-24T09:56:47;21.70;99.90
19263;DHT22;9765;52.354;20.884;2023-04-24T09:59:15;22.00;99.90
19263;DHT22;9765;52.354;20.884;2023-04-24T10:01:43;22.10;99.90
19263;DHT22;9765;52.354;20.884;2023-04-24T10:04:18;22.10;99.90
19263;DHT22;9765;52.354;20.884;2023-04-24T10:06:45;22.20;99.90
19263;DHT22;9765;52.354;20.884;2023-04-24T10:09:12;22.50;99.90
19263;DHT22;9765;52.354;20.884;2023-04-24T10:11:42;22.70;99.90
19263;DHT22;9765;52.354;20.884;2023-04-24T10:14:10;22.70;99.90
19263;DHT22;9765;52.354;20.884;2023-04-24T10:16:38;23.00;99.90
19263;DHT22;9765;52.354;20.884;2023-04-24T10:19:07;23.20;99.90
19263;DHT22;9765;52.354;20.884;2023-04-24T10:21:35;23.00;99.90
19263;DHT22;9765;52.354;20.884;2023-04-24T10:24:03;22.80;99.90
19263;DHT22;9765;52.354;20.884;2023-04-24T10:26:33;23.00;99.90
19263;DHT22;9765;52.354;20.884;2023-04-24T10:29:01;23.30;98.90
19263;DHT22;9765;52.354;20.884;2023-04-24T10:31:31;23.40;97.30
19263;DHT22;9765;52.354;20.884;2023-04-24T10:33:58;23.40;98.10
19263;DHT22;9765;52.354;20.884;2023-04-24T10:36:31;23.70;98.40
19263;DHT22;9765;52.354;20.884;2023-04-24T10:39:01;23.50;97.20
19263;DHT22;9765;52.354;20.884;2023-04-24T10:41:30;23.50;97.30
19263;DHT22;9765;52.354;20.884;2023-04-24T10:44:07;23.60;95.90
19263;DHT22;9765;52.354;20.884;2023-04-24T10:46:35;23.60;97.10
19263;DHT22;9765;52.354;20.884;2023-04-24T10:49:04;23.40;95.60
19263;DHT22;9765;52.354;20.884;2023-04-24T10:51:46;23.30;95.80
19263;DHT22;9765;52.354;20.884;2023-04-24T10:54:23;23.50;96.20
19263;DHT22;9765;52.354;20.884;2023-04-24T10:56:51;23.70;96.20
19263;DHT22;9765;52.354;20.884;2023-04-24T10:59:24;23.70;95.50
19263;DHT22;9765;52.354;20.884;2023-04-24T11:01:53;23.90;96.40
19263;DHT22;9765;52.354;20.884;2023-04-24T11:04:29;24.10;97.00
19263;DHT22;9765;52.354;20.884;2023-04-24T11:06:59;24.40;93.60
19263;DHT22;9765;52.354;20.884;2023-04-24T11:09:27;24.70;93.20
19263;DHT22;9765;52.354;20.884;2023-04-24T11:12:03;24.80;94.60
19263;DHT22;9765;52.354;20.884;2023-04-24T11:14:59;24.90;92.90
19263;DHT22;9765;52.354;20.884;2023-04-24T11:17:30;24.90;93.80
19263;DHT22;9765;52.354;20.884;2023-04-24T11:20:01;25.10;93.80
19263;DHT22;9765;52.354;20.884;2023-04-24T11:22:33;25.20;93.20
19263;DHT22;9765;52.354;20.884;2023-04-24T11:25:01;25.00;92.80
19263;DHT22;9765;52.354;20.884;2023-04-24T11:27:30;24.80;95.10
19263;DHT22;9765;52.354;20.884;2023-04-24T11:30:02;24.40;93.90
19263;DHT22;9765;52.354;20.884;2023-04-24T11:32:33;24.20;95.30
19263;DHT22;9765;52.354;20.884;2023-04-24T11:35:02;24.40;95.50
19263;DHT22;9765;52.354;20.884;2023-04-24T11:37:37;24.40;93.90
19263;DHT22;9765;52.354;20.884;2023-04-24T11:40:06;24.50;94.90
19263;DHT22;9765;52.354;20.884;2023-04-24T11:42:34;24.70;93.90
19263;DHT22;9765;52.354;20.884;2023-04-24T11:45:01;24.60;93.50
19263;DHT22;9765;52.354;20.884;2023-04-24T11:47:29;24.40;94.30
19263;DHT22;9765;52.354;20.884;2023-04-24T11:49:57;24.60;93.60
19263;DHT22;9765;52.354;20.884;2023-04-24T11:52:24;24.50;92.40
19263;DHT22;9765;52.354;20.884;2023-04-24T11:54:52;24.60;92.50
19263;DHT22;9765;52.354;20.884;2023-04-24T11:57:19;24.90;95.20
19263;DHT22;9765;52.354;20.884;2023-04-24T11:59:47;25.10;93.00
19263;DHT22;9765;52.354;20.884;2023-04-24T12:02:21;25.00;92.30
19263;DHT22;9765;52.354;20.884;2023-04-24T12:04:48;24.80;92.90
19263;DHT22;9765;52.354;20.884;2023-04-24T12:07:15;24.60;91.90
19263;DHT22;9765;52.354;20.884;2023-04-24T12:09:45;24.30;92.40
19263;DHT22;9765;52.354;20.884;2023-04-24T12:12:14;24.10;92.40
19263;DHT22;9765;52.354;20.884;2023-04-24T12:14:47;23.90;92.90
19263;DHT22;9765;52.354;20.884;2023-04-24T12:17:14;23.90;91.40
19263;DHT22;9765;52.354;20.884;2023-04-24T12:19:45;24.10;91.10
19263;DHT22;9765;52.354;20.884;2023-04-24T12:22:13;24.10;93.80
19263;DHT22;9765;52.354;20.884;2023-04-24T12:24:56;24.00;91.10
19263;DHT22;9765;52.354;20.884;2023-04-24T12:27:24;23.90;91.50
19263;DHT22;9765;52.354;20.884;2023-04-24T12:29:52;23.80;92.20
19263;DHT22;9765;52.354;20.884;2023-04-24T12:32:19;23.80;93.80
19263;DHT22;9765;52.354;20.884;2023-04-24T12:34:46;23.70;93.90
19263;DHT22;9765;52.354;20.884;2023-04-24T12:37:13;23.60;94.50
19263;DHT22;9765;52.354;20.884;2023-04-24T12:39:57;23.60;94.60
19263;DHT22;9765;52.354;20.884;2023-04-24T12:42:27;23.50;92.30
19263;DHT22;9765;52.354;20.884;2023-04-24T12:44:57;23.40;92.00
19263;DHT22;9765;52.354;20.884;2023-04-24T12:47:25;23.30;91.00
19263;DHT22;9765;52.354;20.884;2023-04-24T12:49:51;23.30;92.50
19263;DHT22;9765;52.354;20.884;2023-04-24T12:52:18;23.30;90.70
19263;DHT22;9765;52.354;20.884;2023-04-24T12:54:46;23.50;90.00
19263;DHT22;9765;52.354;20.884;2023-04-24T12:57:13;23.60;90.20
19263;DHT22;9765;52.354;20.884;2023-04-24T12:59:41;23.50;90.90
19263;DHT22;9765;52.354;20.884;2023-04-24T13:02:08;23.40;92.10
19263;DHT22;9765;52.354;20.884;2023-04-24T13:04:35;23.30;92.50
19263;DHT22;9765;52.354;20.884;2023-04-24T13:07:02;23.20;93.00
19263;DHT22;9765;52.354;20.884;2023-04-24T13:09:30;22.90;95.50
19263;DHT22;9765;52.354;20.884;2023-04-24T13:11:56;22.60;95.60
19263;DHT22;9765;52.354;20.884;2023-04-24T13:14:23;22.40;95.90
19263;DHT22;9765;52.354;20.884;2023-04-24T13:16:51;22.10;96.40
19263;DHT22;9765;52.354;20.884;2023-04-24T13:19:18;21.90;97.10
19263;DHT22;9765;52.354;20.884;2023-04-24T13:21:45;21.60;97.70
19263;DHT22;9765;52.354;20.884;2023-04-24T13:24:12;21.50;98.90
19263;DHT22;9765;52.354;20.884;2023-04-24T13:26:41;21.30;98.30
19263;DHT22;9765;52.354;20.884;2023-04-24T13:29:08;21.20;98.40
19263;DHT22;9765;52.354;20.884;2023-04-24T13:31:35;21.00;98.10
19263;DHT22;9765;52.354;20.884;2023-04-24T13:34:03;20.90;98.70
19263;DHT22;9765;52.354;20.884;2023-04-24T13:36:30;20.80;98.50
19263;DHT22;9765;52.354;20.884;2023-04-24T13:38:57;20.70;99.70
19263;DHT22;9765;52.354;20.884;2023-04-24T13:41:24;20.70;98.70
19263;DHT22;9765;52.354;20.884;2023-04-24T13:43:50;20.50;99.00
19263;DHT22;9765;52.354;20.884;2023-04-24T13:46:17;20.50;97.70
19263;DHT22;9765;52.354;20.884;2023-04-24T13:48:44;20.40;98.70
19263;DHT22;9765;52.354;20.884;2023-04-24T13:51:12;20.40;98.60
19263;DHT22;9765;52.354;20.884;2023-04-24T13:53:45;20.40;98.80
19263;DHT22;9765;52.354;20.884;2023-04-24T13:56:12;20.40;97.60
19263;DHT22;9765;52.354;20.884;2023-04-24T13:58:39;20.40;98.10
19263;DHT22;9765;52.354;20.884;2023-04-24T14:01:06;20.50;99.00
19263;DHT22;9765;52.354;20.884;2023-04-24T14:03:33;20.50;98.50
19263;DHT22;9765;52.354;20.884;2023-04-24T14:06:00;20.60;98.50
19263;DHT22;9765;52.354;20.884;2023-04-24T14:08:28;20.70;97.60
19263;DHT22;9765;52.354;20.884;2023-04-24T14:10:55;20.70;96.30
19263;DHT22;9765;52.354;20.884;2023-04-24T14:13:22;20.80;97.10
19263;DHT22;9765;52.354;20.884;2023-04-24T14:15:49;20.90;96.50
19263;DHT22;9765;52.354;20.884;2023-04-24T14:18:15;21.10;96.20
19263;DHT22;9765;52.354;20.884;2023-04-24T14:20:42;21.10;95.30
19263;DHT22;9765;52.354;20.884;2023-04-24T14:23:09;21.20;96.90
19263;DHT22;9765;52.354;20.884;2023-04-24T14:25:40;21.20;95.40
19263;DHT22;9765;52.354;20.884;2023-04-24T14:28:07;21.20;95.70
19263;DHT22;9765;52.354;20.884;2023-04-24T14:30:34;21.30;95.20
19263;DHT22;9765;52.354;20.884;2023-04-24T14:33:03;21.30;95.00
19263;DHT22;9765;52.354;20.884;2023-04-24T14:35:30;21.40;93.40
19263;DHT22;9765;52.354;20.884;2023-04-24T14:37:59;21.50;93.00
19263;DHT22;9765;52.354;20.884;2023-04-24T14:40:26;21.60;94.00
19263;DHT22;9765;52.354;20.884;2023-04-24T14:42:54;21.70;93.50
19263;DHT22;9765;52.354;20.884;2023-04-24T14:45:22;21.70;94.10
19263;DHT22;9765;52.354;20.884;2023-04-24T14:47:49;21.80;93.20
19263;DHT22;9765;52.354;20.884;2023-04-24T14:50:16;21.80;92.90
19263;DHT22;9765;52.354;20.884;2023-04-24T14:52:43;21.60;92.00
19263;DHT22;9765;52.354;20.884;2023-04-24T14:55:10;21.60;93.90
19263;DHT22;9765;52.354;20.884;2023-04-24T14:57:36;21.50;93.50
19263;DHT22;9765;52.354;20.884;2023-04-24T15:00:06;21.50;94.70
19263;DHT22;9765;52.354;20.884;2023-04-24T15:02:34;21.50;94.70
19263;DHT22;9765;52.354;20.884;2023-04-24T15:05:07;21.30;94.70
19263;DHT22;9765;52.354;20.884;2023-04-24T15:07:34;21.30;94.40
19263;DHT22;9765;52.354;20.884;2023-04-24T15:10:02;21.20;95.30
19263;DHT22;9765;52.354;20.884;2023-04-24T15:12:30;21.20;95.10
19263;DHT22;9765;52.354;20.884;2023-04-24T15:14:57;21.20;95.40
19263;DHT22;9765;52.354;20.884;2023-04-24T15:17:26;21.10;94.70
19263;DHT22;9765;52.354;20.884;2023-04-24T15:19:53;21.10;94.20
19263;DHT22;9765;52.354;20.884;2023-04-24T15:22:20;21.10;95.20
19263;DHT22;9765;52.354;20.884;2023-04-24T15:24:46;21.10;95.10
19263;DHT22;9765;52.354;20.884;2023-04-24T15:27:13;21.00;95.40
19263;DHT22;9765;52.354;20.884;2023-04-24T15:29:40;21.00;93.60
19263;DHT22;9765;52.354;20.884;2023-04-24T15:32:07;21.00;94.50
19263;DHT22;9765;52.354;20.884;2023-04-24T15:34:35;21.00;93.40
19263;DHT22;9765;52.354;20.884;2023-04-24T15:37:01;21.00;93.20
19263;DHT22;9765;52.354;20.884;2023-04-24T15:39:28;21.00;92.60
19263;DHT22;9765;52.354;20.884;2023-04-24T15:41:55;20.90;92.50
19263;DHT22;9765;52.354;20.884;2023-04-24T15:44:23;20.90;93.70
19263;DHT22;9765;52.354;20.884;2023-04-24T15:46:49;20.80;94.20
19263;DHT22;9765;52.354;20.884;2023-04-24T15:49:17;21.00;93.60
19263;DHT22;9765;52.354;20.884;2023-04-24T15:51:45;21.00;93.80
19263;DHT22;9765;52.354;20.884;2023-04-24T15:54:12;21.00;92.80
19263;DHT22;9765;52.354;20.884;2023-04-24T15:56:38;20.90;93.30
19263;DHT22;9765;52.354;20.884;2023-04-24T15:59:05;20.90;93.90
19263;DHT22;9765;52.354;20.884;2023-04-24T16:01:32;20.90;94.00
19263;DHT22;9765;52.354;20.884;2023-04-24T16:03:59;20.80;93.90
19263;DHT22;9765;52.354;20.884;2023-04-24T16:06:26;20.80;93.00
19263;DHT22;9765;52.354;20.884;2023-04-24T16:08:54;20.80;93.30
19263;DHT22;9765;52.354;20.884;2023-04-24T16:11:21;20.90;92.80
19263;DHT22;9765;52.354;20.884;2023-04-24T16:13:48;20.80;93.30
19263;DHT22;9765;52.354;20.884;2023-04-24T16:16:15;20.80;93.40
19263;DHT22;9765;52.354;20.884;2023-04-24T16:18:41;20.80;92.20
19263;DHT22;9765;52.354;20.884;2023-04-24T16:21:08;20.80;92.60
19263;DHT22;9765;52.354;20.884;2023-04-24T16:23:35;20.80;92.50
19263;DHT22;9765;52.354;20.884;2023-04-24T16:26:03;20.80;93.70
19263;DHT22;9765;52.354;20.884;2023-04-24T16:28:33;20.70;92.20
19263;DHT22;9765;52.354;20.884;2023-04-24T16:31:00;20.70;92.30
19263;DHT22;9765;52.354;20.884;2023-04-24T16:33:27;20.70;92.30
19263;DHT22;9765;52.354;20.884;2023-04-24T16:35:54;20.70;91.70
19263;DHT22;9765;52.354;20.884;2023-04-24T16:38:21;20.60;91.00
19263;DHT22;9765;52.354;20.884;2023-04-24T16:40:49;20.70;92.10
19263;DHT22;9765;52.354;20.884;2023-04-24T16:43:17;20.70;91.40
19263;DHT22;9765;52.354;20.884;2023-04-24T16:45:44;20.50;91.70
19263;DHT22;9765;52.354;20.884;2023-04-24T16:48:11;20.40;92.60
19263;DHT22;9765;52.354;20.884;2023-04-24T16:50:38;20.30;92.40
19263;DHT22;9765;52.354;20.884;2023-04-24T16:53:05;20.20;93.50
19263;DHT22;9765;52.354;20.884;2023-04-24T16:55:31;20.10;93.60
19263;DHT22;9765;52.354;20.884;2023-04-24T16:57:58;20.00;94.80
19263;DHT22;9765;52.354;20.884;2023-04-24T17:00:26;19.80;94.10
19263;DHT22;9765;52.354;20.884;2023-04-24T17:02:53;19.70;95.30
19263;DHT22;9765;52.354;20.884;2023-04-24T17:05:20;19.60;94.30
19263;DHT22;9765;52.354;20.884;2023-04-24T17:07:50;19.50;94.50
19263;DHT22;9765;52.354;20.884;2023-04-24T17:10:17;19.40;94.70
19263;DHT22;9765;52.354;20.884;2023-04-24T17:12:44;19.30;94.30
19263;DHT22;9765;52.354;20.884;2023-04-24T17:15:11;19.20;94.00
19263;DHT22;9765;52.354;20.884;2023-04-24T17:17:39;19.20;94.20
19263;DHT22;9765;52.354;20.884;2023-04-24T17:20:09;19.10;94.40
19263;DHT22;9765;52.354;20.884;2023-04-24T17:22:36;19.00;98.70
19263;DHT22;9765;52.354;20.884;2023-04-24T17:25:03;18.90;96.90
